createdAt,value
2024-01-11T00:02:10.900Z,103327.66
2024-01-11T00:04:39.094Z,103336.41
2024-01-11T00:07:07.341Z,103345.19
2024-01-11T00:09:35.522Z,103342.63
2024-01-11T00:12:04.184Z,103336.56
2024-01-11T00:14:32.325Z,103340.88
2024-01-11T00:17:02.017Z,103343.44
2024-01-11T00:19:30.282Z,103342.63
2024-01-11T00:21:58.357Z,103337.47
2024-01-11T00:24:26.542Z,103339.22
2024-01-11T00:26:54.726Z,103341.84
2024-01-11T00:29:22.988Z,103341.00
2024-01-11T00:31:51.106Z,103340.16
2024-01-11T00:34:20.762Z,103346.28
2024-01-11T00:36:48.934Z,103347.28
2024-01-11T00:39:17.030Z,103343.66
2024-01-11T00:41:45.253Z,103346.25
2024-01-11T00:44:13.581Z,103351.41
2024-01-11T00:46:42.120Z,103342.91
2024-01-11T00:49:10.501Z,103348.72
2024-01-11T00:51:40.503Z,103353.16
2024-01-11T00:54:08.656Z,103366.22
2024-01-11T00:56:36.956Z,103375.72
2024-01-11T00:59:06.492Z,103373.81
2024-01-11T01:01:34.628Z,103376.31
2024-01-11T01:04:02.785Z,103376.19
2024-01-11T01:06:31.112Z,103367.41
2024-01-11T01:09:00.606Z,103375.19
2024-01-11T01:11:28.962Z,103379.56
2024-01-11T01:13:57.144Z,103384.81
2024-01-11T01:16:25.438Z,103381.19
2024-01-11T01:18:53.610Z,103390.69
2024-01-11T01:21:21.774Z,103392.22
2024-01-11T01:23:49.931Z,103388.63
2024-01-11T01:26:19.556Z,103385.84
2024-01-11T01:28:48.030Z,103389.25
2024-01-11T01:31:16.415Z,103396.16
2024-01-11T01:33:44.750Z,103395.28
2024-01-11T01:36:13.052Z,103394.34
2024-01-11T01:38:41.254Z,103388.13
2024-01-11T01:41:09.609Z,103380.28
2024-01-11T01:43:39.065Z,103373.28
2024-01-11T01:46:07.453Z,103378.53
2024-01-11T01:48:35.756Z,103372.50
2024-01-11T01:51:04.112Z,103366.38
2024-01-11T01:53:32.214Z,103366.50
2024-01-11T01:56:00.488Z,103354.31
2024-01-11T01:58:28.661Z,103362.13
2024-01-11T02:00:58.582Z,103354.47
2024-01-11T02:03:26.818Z,103367.59
2024-01-11T02:05:55.028Z,103373.78
2024-01-11T02:08:24.282Z,103362.34
2024-01-11T02:10:52.628Z,103363.44
2024-01-11T02:13:23.355Z,103384.31
2024-01-11T02:15:51.599Z,103391.38
2024-01-11T02:18:21.111Z,103388.69
2024-01-11T02:20:49.413Z,103402.75
2024-01-11T02:23:19.630Z,103404.34
2024-01-11T02:25:49.269Z,103413.13
2024-01-11T02:28:17.388Z,103415.91
2024-01-11T02:30:45.705Z,103412.16
2024-01-11T02:33:18.154Z,103417.34
2024-01-11T02:35:48.124Z,103417.34
2024-01-11T02:38:17.742Z,103424.22
2024-01-11T02:40:45.955Z,103420.72
2024-01-11T02:43:15.772Z,103427.56
2024-01-11T02:45:43.884Z,103430.97
2024-01-11T02:48:12.006Z,103426.44
2024-01-11T02:50:40.217Z,103432.38
2024-01-11T02:53:08.319Z,103435.75
2024-01-11T02:55:36.473Z,103443.56
2024-01-11T02:58:04.782Z,103449.63
2024-01-11T03:00:34.322Z,103459.16
2024-01-11T03:03:02.847Z,103460.81
2024-01-11T03:05:31.057Z,103457.25
2024-01-11T03:07:59.220Z,103466.81
2024-01-11T03:10:27.370Z,103470.28
2024-01-11T03:12:55.415Z,103467.56
2024-01-11T03:15:23.626Z,103464.75
2024-01-11T03:17:53.279Z,103456.94
2024-01-11T03:20:25.758Z,103470.94
2024-01-11T03:22:54.054Z,103466.66
2024-01-11T03:25:22.125Z,103480.59
2024-01-11T03:27:50.178Z,103477.94
2024-01-11T03:30:18.596Z,103483.16
2024-01-11T03:32:46.875Z,103485.75
2024-01-11T03:35:16.529Z,103490.94
2024-01-11T03:37:44.705Z,103490.94
2024-01-11T03:40:13.292Z,103490.84
2024-01-11T03:42:41.386Z,103490.84
2024-01-11T03:45:10.142Z,103494.41
2024-01-11T03:47:38.539Z,103490.84
2024-01-11T03:50:07.654Z,103503.13
2024-01-11T03:52:37.087Z,103496.91
2024-01-11T03:55:05.600Z,103490.75
2024-01-11T03:57:33.717Z,103490.63
2024-01-11T04:00:01.767Z,103503.81
2024-01-11T04:02:32.739Z,103497.59
2024-01-11T04:05:00.943Z,103495.88
2024-01-11T04:07:29.047Z,103490.63
2024-01-11T04:09:58.517Z,103495.00
2024-01-11T04:12:26.633Z,103494.09
2024-01-11T04:14:54.715Z,103498.47
2024-01-11T04:17:22.934Z,103495.81
2024-01-11T04:19:51.112Z,103497.56
2024-01-11T04:22:19.216Z,103493.88
2024-01-11T04:24:47.344Z,103485.28
2024-01-11T04:27:16.822Z,103493.88
2024-01-11T04:29:45.002Z,103483.41
2024-01-11T04:32:13.159Z,103505.28
2024-01-11T04:34:41.475Z,103488.59
2024-01-11T04:37:09.602Z,103492.06
2024-01-11T04:39:37.691Z,103505.25
2024-01-11T04:42:06.004Z,103499.06
2024-01-11T04:44:35.471Z,103506.00
2024-01-11T04:47:03.606Z,103502.41
2024-01-11T04:49:31.716Z,103501.53
2024-01-11T04:51:59.857Z,103491.84
2024-01-11T04:54:27.955Z,103504.13
2024-01-11T04:56:56.003Z,103500.44
2024-01-11T04:59:24.144Z,103503.13
2024-01-11T05:01:53.608Z,103509.28
2024-01-11T05:04:21.713Z,103514.47
2024-01-11T05:06:49.795Z,103516.19
2024-01-11T05:09:17.999Z,103519.72
2024-01-11T05:11:47.393Z,103511.72
2024-01-11T05:14:15.531Z,103510.91
2024-01-11T05:16:43.669Z,103517.91
2024-01-11T05:19:13.199Z,103510.91
2024-01-11T05:21:41.455Z,103517.78
2024-01-11T05:24:11.917Z,103517.78
2024-01-11T05:26:40.475Z,103519.50
2024-01-11T05:29:08.578Z,103525.69
2024-01-11T05:31:36.896Z,103518.78
2024-01-11T05:34:05.464Z,103513.41
2024-01-11T05:36:35.080Z,103524.91
2024-01-11T05:39:03.215Z,103510.03
2024-01-11T05:41:31.337Z,103522.28
2024-01-11T05:43:59.449Z,103523.97
2024-01-11T05:46:27.610Z,103518.59
2024-01-11T05:48:55.782Z,103530.88
2024-01-11T05:51:23.913Z,103521.25
2024-01-11T05:53:53.390Z,103533.41
2024-01-11T05:56:21.659Z,103531.69
2024-01-11T05:58:49.785Z,103543.84
2024-01-11T06:01:17.993Z,103544.78
2024-01-11T06:03:46.164Z,103543.84
2024-01-11T06:06:14.396Z,103551.72
2024-01-11T06:08:44.205Z,103521.69
2024-01-11T06:11:13.768Z,103551.78
2024-01-11T06:13:42.796Z,103568.41
2024-01-11T06:16:13.395Z,103567.56
2024-01-11T06:18:42.108Z,103569.28
2024-01-11T06:21:10.214Z,103578.06
2024-01-11T06:23:38.357Z,103582.53
2024-01-11T06:26:06.565Z,103593.06
2024-01-11T06:28:36.749Z,103603.72
2024-01-11T06:31:05.455Z,103602.00
2024-01-11T06:33:34.152Z,103602.84
2024-01-11T06:36:02.372Z,103605.56
2024-01-11T06:38:30.772Z,103606.41
2024-01-11T06:40:59.386Z,103611.69
2024-01-11T06:43:27.434Z,103623.09
2024-01-11T06:45:56.920Z,103617.81
2024-01-11T06:48:25.649Z,103627.47
2024-01-11T06:50:53.884Z,103628.28
2024-01-11T06:53:24.104Z,103631.88
2024-01-11T06:55:53.683Z,103606.38
2024-01-11T06:58:23.272Z,103620.53
2024-01-11T07:00:51.754Z,103632.75
2024-01-11T07:03:21.290Z,103631.97
2024-01-11T07:05:49.611Z,103640.66
2024-01-11T07:08:17.822Z,103646.81
2024-01-11T07:10:46.617Z,103647.66
2024-01-11T07:13:17.911Z,103647.66
2024-01-11T07:15:46.102Z,103663.50
2024-01-11T07:18:14.291Z,103664.34
2024-01-11T07:20:43.883Z,103662.59
2024-01-11T07:23:12.061Z,103666.25
2024-01-11T07:25:40.688Z,103663.53
2024-01-11T07:28:08.801Z,103669.59
2024-01-11T07:30:36.905Z,103666.97
2024-01-11T07:33:05.919Z,103677.50
2024-01-11T07:35:34.206Z,103687.19
2024-01-11T07:38:03.941Z,103693.22
2024-01-11T07:40:34.531Z,103695.94
2024-01-11T07:43:05.148Z,103702.91
2024-01-11T07:45:33.252Z,103701.22
2024-01-11T07:48:04.138Z,103707.25
2024-01-11T07:50:32.613Z,103679.97
2024-01-11T07:53:00.777Z,103696.72
2024-01-11T07:55:30.390Z,103694.25
2024-01-11T07:57:58.594Z,103704.72
2024-01-11T08:00:26.938Z,103709.91
2024-01-11T08:02:55.726Z,103711.69
2024-01-11T08:05:24.029Z,103716.06
2024-01-11T08:07:52.487Z,103715.19
2024-01-11T08:10:22.999Z,103722.31
2024-01-11T08:12:53.581Z,103720.56
2024-01-11T08:15:21.715Z,103727.53
2024-01-11T08:17:49.959Z,103727.53
2024-01-11T08:20:18.505Z,103724.03
2024-01-11T08:22:47.575Z,103734.53
2024-01-11T08:25:16.108Z,103735.34
2024-01-11T08:27:44.306Z,103727.41
2024-01-11T08:30:15.181Z,103743.22
2024-01-11T08:32:43.838Z,103742.38
2024-01-11T08:37:42.185Z,103735.28
2024-01-11T08:40:12.393Z,103743.13
2024-01-11T08:42:43.904Z,103752.81
2024-01-11T08:45:19.553Z,103744.75
2024-01-11T08:47:48.066Z,103757.78
2024-01-11T08:50:16.824Z,103761.25
2024-01-11T08:52:45.657Z,103769.88
2024-01-11T08:55:14.184Z,103764.56
2024-01-11T08:57:42.333Z,103771.53
2024-01-11T09:00:11.955Z,103779.44
2024-01-11T09:02:41.586Z,103780.25
2024-01-11T09:05:10.375Z,103775.88
2024-01-11T09:07:39.658Z,103785.44
2024-01-11T09:10:10.354Z,103787.22
2024-01-11T09:12:38.689Z,103785.31
2024-01-11T09:15:07.540Z,103796.81
2024-01-11T09:17:35.738Z,103796.81
2024-01-11T09:20:06.043Z,103798.69
2024-01-11T09:22:34.916Z,103799.53
2024-01-11T09:25:03.000Z,103799.47
2024-01-11T09:27:31.942Z,103802.09
2024-01-11T09:30:00.075Z,103804.63
2024-01-11T09:32:28.445Z,103812.72
2024-01-11T09:34:56.628Z,103823.16
2024-01-11T09:37:28.676Z,103818.66
2024-01-11T09:39:57.060Z,103820.25
2024-01-11T09:42:25.939Z,103817.00
2024-01-11T09:44:54.276Z,103823.72
2024-01-11T09:47:22.412Z,103820.19
2024-01-11T09:49:51.961Z,103827.91
2024-01-11T09:52:21.672Z,103826.06
2024-01-11T09:54:51.367Z,103827.84
2024-01-11T09:57:21.788Z,103818.34
2024-01-11T09:59:52.581Z,103811.44
2024-01-11T10:02:21.257Z,103809.41
2024-01-11T10:04:49.772Z,103834.69
2024-01-11T10:07:20.032Z,103839.00
2024-01-11T10:09:48.718Z,103839.69
2024-01-11T10:12:22.218Z,103855.34
2024-01-11T10:14:50.472Z,103850.75
2024-01-11T10:17:21.700Z,103855.00
2024-01-11T10:19:52.625Z,103858.41
2024-01-11T10:22:23.199Z,103860.97
2024-01-11T10:24:53.363Z,103867.94
2024-01-11T10:27:24.564Z,103853.94
2024-01-11T10:29:52.952Z,103871.31
2024-01-11T10:32:21.087Z,103875.63
2024-01-11T10:34:49.321Z,103886.06
2024-01-11T10:37:18.120Z,103894.84
2024-01-11T10:39:46.462Z,103885.28
2024-01-11T10:42:14.570Z,103880.16
2024-01-11T10:44:44.156Z,103906.94
2024-01-11T10:47:12.488Z,103902.63
2024-01-11T10:49:42.177Z,103904.56
2024-01-11T10:52:10.483Z,103909.84
2024-01-11T10:54:38.572Z,103903.69
2024-01-11T10:57:08.903Z,103886.06
2024-01-11T10:59:37.169Z,103913.97
2024-01-11T11:02:11.910Z,103907.69
2024-01-11T11:04:41.250Z,103911.97
2024-01-11T11:07:09.806Z,103909.22
2024-01-11T11:09:38.817Z,103895.28
2024-01-11T11:12:18.094Z,103909.22
2024-01-11T11:14:46.523Z,103907.28
2024-01-11T11:21:38.179Z,103907.78
2024-01-11T11:23:51.706Z,103902.66
2024-01-11T11:26:37.314Z,103887.06
2024-01-11T11:29:41.684Z,103901.78
2024-01-11T11:32:11.618Z,103879.44
2024-01-11T11:34:49.547Z,103911.31
2024-01-11T11:37:25.127Z,103913.88
2024-01-11T11:39:53.307Z,103912.25
2024-01-11T11:42:21.419Z,103909.00
2024-01-11T11:44:51.555Z,103905.66
2024-01-11T11:47:22.515Z,103898.75
2024-01-11T11:50:08.860Z,103897.97
2024-01-11T11:52:38.063Z,103892.91
2024-01-11T11:55:07.683Z,103892.91
2024-01-11T11:57:36.085Z,103883.28
2024-01-11T12:00:07.454Z,103871.31
2024-01-11T12:02:41.970Z,103887.19
2024-01-11T12:05:11.827Z,103870.75
2024-01-11T12:07:40.028Z,103874.22
2024-01-11T12:10:08.966Z,103885.66
2024-01-11T12:12:37.377Z,103851.56
2024-01-11T12:15:07.184Z,103861.88
2024-01-11T12:31:48.501Z,103858.41
2024-01-11T12:34:32.257Z,103874.88
2024-01-11T12:37:06.645Z,103869.47
2024-01-11T12:39:35.113Z,103862.38
2024-01-11T12:42:05.240Z,103855.47
2024-01-11T12:44:36.670Z,103838.19
2024-01-11T12:51:45.716Z,103808.38
2024-01-11T12:55:19.374Z,103802.31
2024-01-11T13:09:38.364Z,103832.47
2024-01-11T13:16:26.348Z,103843.53
2024-01-11T13:23:40.554Z,103853.72
2024-01-11T13:26:12.422Z,103817.56
2024-01-11T13:28:52.658Z,103854.06
2024-01-11T13:31:26.494Z,103819.56
2024-01-11T13:34:04.819Z,103845.91
2024-01-11T13:36:34.177Z,103839.44
2024-01-11T13:39:25.009Z,103851.78
2024-01-11T13:42:08.497Z,103853.09
2024-01-11T13:44:44.717Z,103837.97
2024-01-11T13:48:03.428Z,103852.19
2024-01-11T13:51:09.713Z,103833.22
2024-01-11T13:53:40.202Z,103846.88
2024-01-11T13:59:55.447Z,103875.56
2024-01-11T14:04:09.030Z,103837.81
2024-01-11T14:06:38.999Z,103875.66
2024-01-11T14:09:10.619Z,103894.22
2024-01-11T14:11:38.897Z,103884.81
2024-01-11T14:14:07.816Z,103892.03
2024-01-11T14:16:36.419Z,103887.78
2024-01-11T14:19:04.770Z,103893.22
2024-01-11T14:21:33.022Z,103898.53
2024-01-11T14:24:02.808Z,103903.03
2024-01-11T14:26:31.128Z,103889.81
2024-01-11T14:28:59.349Z,103888.91
2024-01-11T14:31:27.514Z,103881.06
2024-01-11T14:33:55.938Z,103888.09
2024-01-11T14:36:24.205Z,103880.16
2024-01-11T14:38:52.904Z,103890.63
2024-01-11T14:41:22.494Z,103870.34
2024-01-11T14:43:50.674Z,103877.41
2024-01-11T14:46:18.814Z,103871.53
2024-01-11T14:48:47.181Z,103866.28
2024-01-11T14:51:15.562Z,103870.47
2024-01-11T14:53:44.858Z,103873.09
2024-01-11T14:56:13.802Z,103866.03
2024-01-11T14:58:43.539Z,103884.41
2024-01-11T15:01:12.111Z,103873.97
2024-01-11T15:03:43.088Z,103889.66
2024-01-11T15:06:12.161Z,103885.31
2024-01-11T15:08:40.869Z,103883.75
2024-01-11T15:24:56.219Z,103901.69
2024-01-11T15:27:31.068Z,103882.56
2024-01-11T15:30:00.794Z,103871.16
2024-01-11T15:32:29.386Z,103905.16
2024-01-11T15:35:00.323Z,103910.50
2024-01-11T15:40:14.627Z,103914.03
2024-01-11T15:42:44.641Z,103918.41
2024-01-11T15:45:17.334Z,103924.66
2024-01-11T15:47:47.814Z,103892.72
2024-01-11T15:50:16.174Z,103926.66
2024-01-11T15:52:46.479Z,103931.09
2024-01-11T15:55:15.787Z,103920.72
2024-01-11T15:57:44.298Z,103907.84
2024-01-11T16:03:38.565Z,103936.72
2024-01-11T16:06:07.471Z,103932.44
2024-01-11T16:08:36.009Z,103943.91
2024-01-11T16:11:04.178Z,103934.25
2024-01-11T16:13:32.313Z,103944.94
2024-01-11T16:16:02.196Z,103947.66
2024-01-11T16:18:30.544Z,103950.41
2024-01-11T16:20:58.833Z,103941.66
2024-01-11T16:23:26.971Z,103946.16
2024-01-11T16:25:55.240Z,103944.53
2024-01-11T16:28:23.392Z,103941.06
2024-01-11T16:30:51.982Z,103943.84
2024-01-11T16:33:21.792Z,103947.44
2024-01-11T16:35:57.809Z,103941.41
2024-01-11T16:38:27.231Z,103945.94
2024-01-11T16:40:56.197Z,103944.34
2024-01-11T16:43:24.421Z,103951.38
2024-01-11T16:45:52.788Z,103951.50
2024-01-11T16:48:22.401Z,103960.50
2024-01-11T16:50:50.881Z,103963.03
2024-01-11T16:53:19.211Z,103955.22
2024-01-11T16:55:47.384Z,103951.75
2024-01-11T16:58:15.501Z,103953.66
2024-01-11T17:00:45.694Z,103957.19
2024-01-11T17:03:14.050Z,103963.34
2024-01-11T17:05:44.007Z,103958.16
2024-01-11T17:08:12.234Z,103973.97
2024-01-11T17:10:40.777Z,103981.00
2024-01-11T17:13:08.891Z,103968.91
2024-01-11T17:15:37.607Z,103971.56
2024-01-11T17:18:06.530Z,103965.38
2024-01-11T17:20:34.789Z,103961.09
2024-01-11T17:23:04.773Z,103971.59
2024-01-11T17:25:33.290Z,103963.69
2024-01-11T17:28:01.378Z,103967.31
2024-01-11T17:30:29.585Z,103970.00
2024-01-11T17:32:58.421Z,103970.00
2024-01-11T17:35:26.602Z,103984.16
2024-01-11T17:37:57.450Z,103961.53
2024-01-11T17:40:35.865Z,103990.38
2024-01-11T17:43:05.554Z,103977.25
2024-01-11T17:45:33.792Z,103973.69
2024-01-11T17:48:02.184Z,103981.72
2024-01-11T17:50:35.755Z,103980.88
2024-01-11T17:53:06.765Z,103983.56
2024-01-11T17:55:36.544Z,103981.84
2024-01-11T17:58:05.592Z,103975.50
2024-01-11T18:00:34.964Z,103968.53
2024-01-11T18:03:04.004Z,103968.44
2024-01-11T18:05:32.505Z,103962.22
2024-01-11T18:08:00.807Z,103968.38
2024-01-11T18:10:28.871Z,103962.38
2024-01-11T18:12:59.792Z,103971.16
2024-01-11T18:15:31.006Z,103979.16
2024-01-11T18:17:59.560Z,103983.72
2024-01-11T18:20:28.061Z,103946.44
2024-01-11T18:22:56.618Z,103983.84
2024-01-11T18:25:27.859Z,103936.19
2024-01-11T18:27:56.544Z,103953.50
2024-01-11T18:30:26.709Z,103947.38
2024-01-11T18:32:55.487Z,103972.38
2024-01-11T18:35:23.948Z,103969.66
2024-01-11T18:37:54.928Z,103965.22
2024-01-11T18:40:26.032Z,103952.94
2024-01-11T18:42:55.893Z,103952.84
2024-01-11T18:45:27.671Z,103970.34
2024-01-11T18:47:56.308Z,103925.25
2024-01-11T18:50:29.117Z,103961.63
2024-01-11T18:52:58.045Z,103946.94
2024-01-11T18:55:28.452Z,103922.03
2024-01-11T18:57:56.855Z,103951.44
2024-01-11T19:00:27.924Z,103952.31
2024-01-11T19:02:57.951Z,103947.16
2024-01-11T19:05:26.623Z,103930.81
2024-01-11T19:07:54.987Z,103955.25
2024-01-11T19:10:26.450Z,103965.78
2024-01-11T19:12:56.292Z,103964.78
2024-01-11T19:15:24.522Z,103968.28
2024-01-11T19:17:56.056Z,103936.13
2024-01-11T19:20:25.880Z,103928.28
2024-01-11T19:22:54.124Z,103963.63
2024-01-11T19:25:25.828Z,103913.22
2024-01-11T19:27:58.736Z,103937.16
2024-01-11T19:30:29.739Z,103959.69
2024-01-11T19:33:01.322Z,103971.84
2024-01-11T19:35:29.596Z,103961.19
2024-01-11T19:38:00.614Z,103955.91
2024-01-11T19:40:28.796Z,103969.91
2024-01-11T19:42:57.047Z,103962.84
2024-01-11T19:45:25.229Z,103960.25
2024-01-11T19:47:53.548Z,103966.38
2024-01-11T19:50:24.391Z,103969.81
2024-01-11T19:52:54.186Z,103968.00
2024-01-11T19:55:22.329Z,103970.59
2024-01-11T19:57:50.398Z,103971.31
2024-01-11T20:00:18.788Z,103968.63
2024-01-11T20:02:47.312Z,103966.78
2024-01-11T20:05:15.852Z,103970.25
2024-01-11T20:07:46.735Z,103967.75
2024-01-11T20:10:15.369Z,103981.50
2024-01-11T20:12:43.760Z,103977.00
2024-01-11T20:15:14.532Z,103984.72
2024-01-11T20:17:45.164Z,103966.47
2024-01-11T20:20:13.652Z,103979.34
2024-01-11T20:22:43.756Z,103986.16
2024-01-11T20:25:17.602Z,103960.31
2024-01-11T20:27:54.530Z,103978.91
2024-01-11T20:30:23.135Z,103990.09
2024-01-11T20:32:51.634Z,103970.94
2024-01-11T20:35:20.065Z,103954.31
2024-01-11T20:37:48.454Z,103990.66
2024-01-11T20:40:19.193Z,103961.06
2024-01-11T20:42:47.376Z,103979.13
2024-01-11T20:45:15.498Z,104002.50
2024-01-11T20:47:43.697Z,104012.13
2024-01-11T20:50:11.928Z,104003.25
2024-01-11T20:52:40.040Z,104000.56
2024-01-11T20:55:08.486Z,103998.72
2024-01-11T20:57:39.374Z,103962.41
2024-01-11T21:00:10.595Z,104007.41
2024-01-11T21:02:39.965Z,104014.25
2024-01-11T21:05:08.520Z,104011.50
2024-01-11T21:07:39.347Z,103989.81
2024-01-11T21:10:08.761Z,103982.94
2024-01-11T21:12:38.752Z,104007.97
2024-01-11T21:15:10.641Z,104000.97
2024-01-11T21:17:39.406Z,104023.34
2024-01-11T21:20:08.784Z,104018.03
2024-01-11T21:22:37.296Z,103992.91
2024-01-11T21:25:06.479Z,104015.19
2024-01-11T21:27:36.046Z,104021.34
2024-01-11T21:30:06.469Z,103980.59
2024-01-11T21:32:34.927Z,104014.09
2024-01-11T21:35:03.084Z,104017.53
2024-01-11T21:37:32.447Z,104022.81
2024-01-11T21:40:00.814Z,103986.31
2024-01-11T21:42:30.962Z,104010.72
2024-01-11T21:44:59.490Z,104009.59
2024-01-11T21:47:29.291Z,103985.47
2024-01-11T21:49:57.677Z,104020.03
2024-01-11T21:52:26.253Z,103986.34
2024-01-11T21:54:56.600Z,104017.34
2024-01-11T21:57:25.008Z,104003.31
2024-01-11T21:59:53.382Z,104011.94
2024-01-11T22:02:24.454Z,103997.22
2024-01-11T22:04:54.310Z,104011.00
2024-01-11T22:07:22.635Z,104009.19
2024-01-11T22:09:50.907Z,103984.91
2024-01-11T22:12:20.390Z,104014.38
2024-01-11T22:14:48.546Z,104005.53
2024-01-11T22:17:17.612Z,104001.16
2024-01-11T22:19:46.748Z,104003.81
2024-01-11T22:22:16.830Z,103997.00
2024-01-11T22:24:45.217Z,103996.13
2024-01-11T22:27:22.597Z,104009.97
2024-01-11T22:29:51.131Z,103974.53
2024-01-11T22:32:19.606Z,104003.75
2024-01-11T22:34:48.089Z,103988.81
2024-01-11T22:37:18.862Z,103994.09
2024-01-11T22:39:46.994Z,103998.41
2024-01-11T22:42:15.129Z,103991.38
2024-01-11T22:44:45.604Z,103974.09
2024-01-11T22:47:13.945Z,104001.88
2024-01-11T22:49:42.013Z,104006.25
2024-01-11T22:52:10.246Z,103997.53
2024-01-11T22:54:41.416Z,103996.66
2024-01-11T22:57:10.314Z,103997.59
2024-01-11T22:59:38.589Z,103997.59
2024-01-11T23:02:07.041Z,103994.84
2024-01-11T23:04:35.984Z,104000.13
2024-01-11T23:07:04.436Z,104007.16
2024-01-11T23:09:32.603Z,104008.88
2024-01-11T23:12:03.437Z,104008.03
2024-01-11T23:14:33.789Z,104000.09
2024-01-11T23:17:03.800Z,103998.53
2024-01-11T23:19:32.365Z,103997.47
2024-01-11T23:22:00.852Z,104000.13
2024-01-11T23:24:29.106Z,104002.72
2024-01-11T23:26:57.575Z,104007.06
2024-01-11T23:29:27.570Z,104001.94
2024-01-11T23:31:55.852Z,104014.25
2024-01-11T23:34:24.014Z,104011.56
2024-01-11T23:36:52.204Z,104014.19
2024-01-11T23:39:20.577Z,104014.25
2024-01-11T23:41:49.034Z,103982.25
2024-01-11T23:44:17.621Z,103998.53
2024-01-11T23:46:48.494Z,104010.91
2024-01-11T23:49:16.828Z,104009.09
2024-01-11T23:51:45.307Z,104000.44
2024-01-11T23:54:15.821Z,103991.78
2024-01-11T23:56:44.172Z,104023.03
2024-01-11T23:59:14.563Z,104014.38
